createdAt,value
2019-04-11T00:05:02.874Z,3.13
2019-04-11T00:10:12.391Z,3.06
2019-04-11T00:15:18.188Z,3.20
2019-04-11T00:20:24.227Z,3.37
2019-04-11T00:25:31.698Z,3.31
2019-04-11T00:30:37.095Z,3.31
2019-04-11T00:35:42.444Z,3.33
2019-04-11T00:40:47.544Z,3.34
2019-04-11T00:45:52.669Z,3.42
2019-04-11T00:50:57.955Z,3.41
2019-04-11T00:56:04.103Z,3.40
2019-04-11T01:01:11.401Z,3.32
2019-04-11T01:06:16.756Z,3.35
2019-04-11T01:11:21.959Z,3.40
2019-04-11T01:16:46.763Z,3.47
2019-04-11T01:21:52.930Z,3.39
2019-04-11T01:26:59.348Z,3.47
2019-04-11T01:32:06.722Z,3.25
2019-04-11T01:37:12.411Z,3.32
2019-04-11T01:42:19.453Z,3.40
2019-04-11T01:47:26.807Z,3.31
2019-04-11T01:52:31.934Z,3.25
2019-04-11T01:57:38.122Z,3.37
2019-04-11T02:02:47.900Z,3.25
2019-04-11T02:07:53.300Z,3.22
2019-04-11T02:12:59.612Z,3.18
2019-04-11T02:18:05.447Z,3.06
2019-04-11T02:23:15.717Z,3.16
2019-04-11T02:28:21.099Z,3.17
2019-04-11T02:33:26.983Z,3.34
2019-04-11T02:38:33.391Z,3.33
2019-04-11T02:43:42.075Z,3.24
2019-04-11T02:48:46.911Z,3.24
2019-04-11T02:53:54.292Z,3.22
2019-04-11T02:58:59.975Z,3.38
2019-04-11T03:04:07.271Z,3.30
2019-04-11T03:09:13.333Z,3.30
2019-04-11T03:14:20.679Z,3.42
2019-04-11T03:19:42.617Z,3.25
2019-04-11T03:24:36.005Z,3.12
2019-04-11T03:29:42.985Z,3.11
2019-04-11T03:40:14.148Z,2.97
2019-04-11T03:45:26.367Z,2.93
2019-04-11T03:50:16.605Z,2.94
2019-04-11T03:55:19.179Z,3.15
2019-04-11T04:00:30.385Z,2.96
2019-04-11T04:05:36.496Z,2.99
2019-04-11T04:10:42.278Z,2.97
2019-04-11T04:16:01.832Z,3.09
2019-04-11T04:21:15.548Z,3.14
2019-04-11T04:26:20.797Z,3.06
2019-04-11T04:31:26.681Z,3.10
2019-04-11T04:36:32.974Z,3.14
2019-04-11T04:41:47.975Z,3.24
2019-04-11T04:47:00.193Z,3.33
2019-04-11T04:51:56.152Z,3.29
2019-04-11T04:57:02.888Z,3.28
2019-04-11T05:02:10.588Z,3.43
2019-04-11T05:07:17.127Z,3.48
2019-04-11T05:12:22.668Z,3.57
2019-04-11T05:17:28.920Z,3.58
2019-04-11T05:22:35.237Z,3.57
2019-04-11T05:27:41.835Z,3.58
2019-04-11T05:32:47.307Z,3.56
2019-04-11T05:37:53.563Z,3.52
2019-04-11T05:42:59.636Z,3.53
2019-04-11T05:48:07.723Z,3.64
2019-04-11T05:53:13.576Z,3.73
2019-04-11T05:58:19.657Z,3.59
2019-04-11T06:03:25.986Z,3.61
2019-04-11T06:08:32.237Z,3.61
2019-04-11T06:13:39.162Z,3.51
2019-04-11T06:19:02.165Z,3.78
2019-04-11T06:24:24.134Z,3.92
2019-04-11T06:29:43.675Z,4.03
2019-04-11T06:34:53.476Z,4.11
2019-04-11T06:40:02.420Z,4.09
2019-04-11T06:45:23.783Z,4.14
2019-04-11T06:50:49.387Z,4.38
2019-04-11T06:56:14.812Z,4.48
2019-04-11T07:01:22.403Z,4.28
2019-04-11T07:06:32.012Z,4.47
2019-04-11T07:11:38.745Z,4.68
2019-04-11T07:17:01.402Z,4.60
2019-04-11T07:22:04.717Z,4.69
2019-04-11T07:27:11.666Z,4.78
2019-04-11T07:32:17.966Z,4.65
2019-04-11T07:37:28.193Z,4.52
2019-04-11T07:42:52.830Z,4.82
2019-04-11T07:48:08.913Z,4.74
2019-04-11T07:53:15.776Z,4.82
2019-04-11T07:58:25.538Z,4.83
2019-04-11T08:03:44.667Z,5.01
2019-04-11T08:08:51.670Z,4.57
2019-04-11T08:14:02.217Z,3.98
2019-04-11T08:19:24.829Z,4.30
2019-04-11T08:24:48.915Z,4.38
2019-04-11T08:30:02.924Z,4.59
2019-04-11T08:35:16.228Z,4.71
2019-04-11T08:40:23.939Z,4.17
2019-04-11T08:45:32.013Z,4.25
2019-04-11T08:50:38.898Z,4.72
2019-04-11T08:55:53.690Z,5.08
2019-04-11T09:01:00.126Z,5.06
2019-04-11T09:06:08.445Z,4.64
2019-04-11T09:11:18.153Z,4.85
2019-04-11T09:16:41.602Z,4.69
2019-04-11T09:22:04.754Z,4.95
2019-04-11T09:27:24.798Z,4.95
2019-04-11T09:32:48.686Z,4.76
2019-04-11T09:37:55.237Z,4.99
2019-04-11T09:43:02.303Z,4.75
2019-04-11T09:48:18.219Z,5.22
2019-04-11T09:53:22.717Z,4.90
2019-04-11T09:58:29.525Z,4.80
2019-04-11T10:03:36.645Z,4.92
2019-04-11T10:08:43.743Z,4.91
2019-04-11T10:13:53.509Z,5.09
2019-04-11T10:19:05.832Z,5.22
2019-04-11T10:24:18.727Z,5.40
2019-04-11T10:29:36.308Z,5.48
2019-04-11T10:34:54.878Z,5.47
2019-04-11T10:40:17.807Z,5.54
2019-04-11T10:45:40.736Z,5.66
2019-04-11T10:50:53.563Z,5.43
2019-04-11T10:56:00.331Z,5.71
2019-04-11T11:01:07.581Z,5.90
2019-04-11T11:06:15.566Z,5.72
2019-04-11T11:11:22.385Z,5.75
2019-04-11T11:16:31.878Z,5.20
2019-04-11T11:21:37.224Z,5.41
2019-04-11T11:26:43.289Z,3.59
2019-04-11T11:31:50.420Z,3.59
2019-04-11T11:37:09.381Z,4.00
2019-04-11T11:42:22.183Z,4.39
2019-04-11T11:47:45.955Z,4.75
2019-04-11T11:52:53.204Z,4.58
2019-04-11T11:58:17.349Z,5.09
2019-04-11T12:03:32.966Z,5.26
2019-04-11T12:08:56.261Z,4.96
2019-04-11T12:14:20.106Z,4.88
2019-04-11T12:19:43.577Z,4.85
2019-04-11T12:24:42.990Z,5.00
2019-04-11T12:30:04.445Z,5.53
2019-04-11T12:35:13.594Z,5.60
2019-04-11T12:40:36.886Z,5.46
2019-04-11T12:45:49.786Z,5.84
2019-04-11T12:51:13.063Z,6.11
2019-04-11T12:56:20.108Z,5.83
2019-04-11T13:01:27.300Z,5.68
2019-04-11T13:06:35.594Z,5.19
2019-04-11T13:11:42.524Z,5.41
2019-04-11T13:16:50.755Z,5.07
2019-04-11T13:21:57.515Z,4.97
2019-04-11T13:27:16.745Z,4.76
2019-04-11T13:32:29.600Z,4.88
2019-04-11T13:37:48.885Z,4.87
2019-04-11T13:42:58.906Z,5.15
2019-04-11T13:48:22.440Z,5.15
2019-04-11T13:53:54.728Z,4.82
2019-04-11T13:59:10.473Z,4.27
2019-04-11T14:04:23.521Z,4.19
2019-04-11T14:09:33.296Z,4.55
2019-04-11T14:14:38.457Z,4.46
2019-04-11T14:20:01.614Z,4.48
2019-04-11T14:25:26.908Z,4.46
2019-04-11T14:30:36.705Z,4.50
2019-04-11T14:35:46.442Z,4.43
2019-04-11T14:41:01.565Z,4.41
2019-04-11T14:46:09.246Z,4.40
2019-04-11T14:51:31.941Z,4.55
2019-04-11T14:56:39.286Z,4.60
2019-04-11T15:01:46.049Z,4.70
2019-04-11T15:06:58.665Z,4.56
2019-04-11T15:12:06.495Z,4.61
2019-04-11T15:17:26.355Z,4.37
2019-04-11T15:22:39.531Z,4.42
2019-04-11T15:27:55.144Z,4.31
2019-04-11T15:33:07.375Z,4.39
2019-04-11T15:38:30.247Z,4.43
2019-04-11T15:43:53.463Z,4.35
2019-04-11T15:49:03.189Z,4.36
2019-04-11T15:54:16.258Z,4.27
2019-04-11T15:59:37.977Z,4.16
2019-04-11T16:04:47.271Z,4.16
2019-04-11T16:09:56.784Z,4.22
2019-04-11T16:15:17.939Z,4.17
2019-04-11T16:20:23.930Z,4.01
2019-04-11T16:25:29.839Z,4.04
2019-04-11T16:30:39.562Z,4.01
2019-04-11T16:35:50.961Z,4.09
2019-04-11T16:41:13.932Z,4.03
2019-04-11T16:46:24.635Z,4.03
2019-04-11T16:51:31.155Z,3.96
2019-04-11T16:56:34.851Z,4.04
2019-04-11T17:01:40.002Z,4.11
2019-04-11T17:06:49.472Z,4.10
2019-04-11T17:11:56.550Z,3.83
2019-04-11T17:17:01.589Z,3.90
2019-04-11T17:22:08.209Z,3.90
2019-04-11T17:27:13.871Z,3.89
2019-04-11T17:32:19.016Z,3.94
2019-04-11T17:37:24.193Z,3.93
2019-04-11T17:42:29.323Z,3.86
2019-04-11T17:47:34.755Z,3.88
2019-04-11T17:52:40.054Z,3.83
2019-04-11T17:57:45.292Z,3.74
2019-04-11T18:02:50.502Z,3.68
2019-04-11T18:07:55.818Z,3.62
2019-04-11T18:13:01.159Z,3.68
2019-04-11T18:18:06.449Z,3.65
2019-04-11T18:23:11.629Z,3.61
2019-04-11T18:28:17.090Z,3.52
2019-04-11T18:33:22.209Z,3.54
2019-04-11T18:38:27.381Z,3.54
2019-04-11T18:43:32.420Z,3.61
2019-04-11T18:48:37.566Z,3.58
2019-04-11T18:53:42.776Z,3.37
2019-04-11T18:58:48.052Z,3.10
2019-04-11T19:03:53.439Z,3.02
2019-04-11T19:08:58.528Z,3.02
2019-04-11T19:14:04.843Z,3.01
2019-04-11T19:19:09.994Z,3.04
2019-04-11T19:24:15.208Z,3.07
2019-04-11T19:29:20.274Z,3.24
2019-04-11T19:34:25.595Z,3.42
2019-04-11T19:39:31.133Z,3.47
2019-04-11T19:44:36.503Z,3.51
2019-04-11T19:49:41.940Z,3.69
2019-04-11T19:54:47.247Z,3.72
2019-04-11T19:59:52.808Z,3.77
2019-04-11T20:04:58.428Z,3.93
2019-04-11T20:10:07.011Z,3.88
2019-04-11T20:15:12.335Z,3.98
2019-04-11T20:20:17.821Z,3.96
2019-04-11T20:25:23.477Z,3.89
2019-04-11T20:30:28.710Z,3.93
2019-04-11T20:35:33.820Z,3.94
2019-04-11T20:40:40.105Z,3.92
2019-04-11T20:45:45.522Z,3.90
2019-04-11T20:50:51.897Z,3.98
2019-04-11T20:55:56.991Z,3.92
2019-04-11T21:01:02.341Z,3.82
2019-04-11T21:06:07.457Z,3.94
2019-04-11T21:11:12.620Z,4.02
2019-04-11T21:16:17.641Z,3.95
2019-04-11T21:21:25.245Z,4.03
2019-04-11T21:26:29.675Z,3.96
2019-04-11T21:31:34.871Z,3.97
2019-04-11T21:36:40.311Z,3.94
2019-04-11T21:41:45.546Z,4.00
2019-04-11T21:46:50.848Z,4.02
2019-04-11T21:51:56.228Z,4.00
2019-04-11T21:57:01.269Z,4.07
2019-04-11T22:02:07.726Z,4.12
2019-04-11T22:07:12.997Z,3.97
2019-04-11T22:12:18.117Z,4.01
2019-04-11T22:17:23.315Z,3.91
2019-04-11T22:22:28.510Z,3.98
2019-04-11T22:27:33.733Z,4.06
2019-04-11T22:32:40.548Z,4.07
2019-04-11T22:37:45.625Z,3.92
2019-04-11T22:42:50.761Z,4.03
2019-04-11T22:47:55.937Z,4.07
2019-04-11T22:53:01.182Z,3.94
2019-04-11T22:58:06.386Z,3.87
2019-04-11T23:03:16.882Z,3.90
2019-04-11T23:08:19.963Z,3.85
2019-04-11T23:13:25.115Z,3.98
2019-04-11T23:18:30.174Z,3.98
2019-04-11T23:23:35.658Z,3.93
2019-04-11T23:28:40.761Z,3.96
2019-04-11T23:33:45.931Z,3.99
2019-04-11T23:38:52.648Z,3.86
2019-04-11T23:43:58.432Z,3.97
2019-04-11T23:49:04.683Z,3.93
2019-04-11T23:54:10.241Z,3.89
2019-04-11T23:59:15.505Z,3.87
